createdAt,value
2019-06-08T00:00:20.791Z,1.80
2019-06-08T00:02:55.332Z,1.30
2019-06-08T00:05:29.761Z,2.33
2019-06-08T00:10:37.286Z,1.40
2019-06-08T00:13:13.041Z,1.10
2019-06-08T00:15:48.621Z,1.03
2019-06-08T00:18:23.624Z,1.20
2019-06-08T00:20:58.238Z,1.20
2019-06-08T00:23:32.678Z,1.23
2019-06-08T00:28:41.295Z,1.37
2019-06-08T00:31:17.162Z,0.80
2019-06-08T00:33:51.765Z,1.03
2019-06-08T00:36:26.200Z,1.03
2019-06-08T00:39:00.870Z,1.30
2019-06-08T00:41:38.871Z,1.20
2019-06-08T00:44:13.272Z,1.20
2019-06-08T00:46:47.846Z,1.10
2019-06-08T00:51:54.937Z,1.40
2019-06-08T00:54:29.800Z,1.07
2019-06-08T00:59:37.107Z,1.00
2019-06-08T01:02:11.668Z,1.10
2019-06-08T01:04:46.061Z,1.07
2019-06-08T01:07:22.022Z,1.40
2019-06-08T01:09:56.778Z,1.10
2019-06-08T01:12:30.953Z,1.00
2019-06-08T01:15:05.897Z,1.43
2019-06-08T01:17:40.286Z,1.03
2019-06-08T01:20:14.862Z,1.00
2019-06-08T01:22:49.113Z,1.30
2019-06-08T01:25:23.756Z,1.17
2019-06-08T01:30:31.353Z,1.10
2019-06-08T01:33:05.946Z,1.30
2019-06-08T01:35:40.648Z,1.20
2019-06-08T01:38:14.949Z,1.00
2019-06-08T01:40:49.285Z,1.23
2019-06-08T01:43:23.936Z,1.20
2019-06-08T01:48:32.296Z,1.17
2019-06-08T01:51:06.937Z,0.97
2019-06-08T01:53:41.277Z,1.00
2019-06-08T01:56:15.718Z,1.12
2019-06-08T01:58:49.965Z,1.10
2019-06-08T02:01:25.478Z,1.20
2019-06-08T02:06:37.314Z,1.00
2019-06-08T02:09:11.945Z,1.10
2019-06-08T02:11:46.639Z,0.90
2019-06-08T02:14:21.128Z,1.03
2019-06-08T02:16:55.684Z,1.07
2019-06-08T02:19:30.565Z,1.00
2019-06-08T02:22:04.947Z,0.83
2019-06-08T02:24:39.621Z,1.02
2019-06-08T02:27:14.276Z,0.90
2019-06-08T02:29:48.743Z,1.03
2019-06-08T02:32:23.119Z,1.00
2019-06-08T02:34:57.540Z,0.90
2019-06-08T02:37:33.090Z,1.00
2019-06-08T02:40:07.938Z,0.97
2019-06-08T02:47:48.750Z,0.77
2019-06-08T02:50:48.595Z,0.77
2019-06-08T02:53:23.654Z,1.03
2019-06-08T02:55:59.284Z,0.70
2019-06-08T02:58:36.925Z,0.80
2019-06-08T03:01:12.069Z,0.90
2019-06-08T03:03:47.646Z,0.80
2019-06-08T03:06:23.665Z,0.93
2019-06-08T03:09:00.321Z,0.80
2019-06-08T03:11:40.920Z,0.87
2019-06-08T03:14:15.701Z,0.87
2019-06-08T03:19:23.272Z,1.00
2019-06-08T03:21:58.283Z,1.00
2019-06-08T03:24:34.421Z,0.90
2019-06-08T03:27:09.686Z,1.10
2019-06-08T03:32:18.266Z,1.00
2019-06-08T03:34:56.476Z,0.93
2019-06-08T03:37:29.276Z,1.13
2019-06-08T03:40:03.690Z,0.93
2019-06-08T03:42:38.296Z,0.80
2019-06-08T03:45:13.684Z,0.70
2019-06-08T03:47:47.951Z,0.82
2019-06-08T03:50:22.671Z,0.80
2019-06-08T03:52:57.113Z,0.90
2019-06-08T03:55:31.670Z,1.00
2019-06-08T03:58:06.105Z,0.90
2019-06-08T04:00:40.555Z,0.90
2019-06-08T04:03:14.939Z,0.80
2019-06-08T04:05:50.086Z,0.90
2019-06-08T04:08:24.716Z,0.97
2019-06-08T04:10:59.130Z,0.77
2019-06-08T04:13:33.695Z,0.90
2019-06-08T04:16:08.285Z,0.80
2019-06-08T04:18:44.503Z,0.70
2019-06-08T04:21:18.978Z,0.90
2019-06-08T04:23:53.362Z,0.70
2019-06-08T04:26:28.672Z,0.80
2019-06-08T04:29:03.348Z,1.40
2019-06-08T04:31:43.994Z,1.15
2019-06-08T04:34:19.948Z,0.87
2019-06-08T04:38:50.267Z,0.80
2019-06-08T04:41:24.948Z,1.10
2019-06-08T04:43:59.317Z,0.80
2019-06-08T04:46:38.367Z,1.00
2019-06-08T04:49:12.948Z,3.40
2019-06-08T04:51:49.570Z,0.93
2019-06-08T04:56:57.139Z,0.80
2019-06-08T04:59:31.684Z,1.00
2019-06-08T05:02:07.595Z,0.90
2019-06-08T05:04:43.255Z,0.77
2019-06-08T05:07:17.894Z,0.60
2019-06-08T05:09:52.358Z,0.93
2019-06-08T05:12:26.954Z,0.83
2019-06-08T05:17:34.283Z,0.70
2019-06-08T05:20:08.891Z,1.50
2019-06-08T05:25:17.953Z,0.67
2019-06-08T05:27:52.296Z,0.80
2019-06-08T05:30:28.190Z,0.90
2019-06-08T05:33:02.913Z,1.10
2019-06-08T05:40:27.284Z,0.80
2019-06-08T05:43:01.957Z,0.93
2019-06-08T05:45:36.651Z,0.83
2019-06-08T05:48:10.947Z,0.87
2019-06-08T05:51:00.499Z,0.77
2019-06-08T05:53:21.354Z,0.80
2019-06-08T05:55:55.897Z,0.73
2019-06-08T05:58:30.266Z,0.90
2019-06-08T06:01:04.694Z,0.93
2019-06-08T06:03:40.328Z,0.60
2019-06-08T06:08:35.660Z,0.82
2019-06-08T06:11:10.549Z,0.80
2019-06-08T06:13:45.185Z,0.70
2019-06-08T06:16:19.687Z,0.77
2019-06-08T06:18:54.136Z,0.83
2019-06-08T06:21:29.589Z,0.80
2019-06-08T06:24:05.650Z,0.73
2019-06-08T06:26:43.235Z,0.70
2019-06-08T06:29:17.707Z,0.90
2019-06-08T06:31:52.199Z,1.07
2019-06-08T06:34:26.991Z,0.87
2019-06-08T06:37:01.689Z,0.97
2019-06-08T06:42:09.195Z,0.70
2019-06-08T06:44:45.714Z,0.90
2019-06-08T06:47:20.165Z,0.72
2019-06-08T06:49:54.959Z,0.90
2019-06-08T06:52:29.665Z,0.90
2019-06-08T06:55:04.249Z,0.80
2019-06-08T06:57:38.697Z,1.03
2019-06-08T07:02:47.629Z,1.00
2019-06-08T07:05:22.131Z,0.80
2019-06-08T07:07:56.746Z,1.00
2019-06-08T07:10:31.213Z,1.00
2019-06-08T07:13:05.753Z,0.70
2019-06-08T07:18:15.955Z,1.00
2019-06-08T07:20:50.310Z,1.00
2019-06-08T07:23:24.924Z,0.90
2019-06-08T07:25:59.354Z,0.73
2019-06-08T07:28:34.093Z,1.00
2019-06-08T07:31:08.625Z,0.87
2019-06-08T07:33:42.949Z,0.80
2019-06-08T07:36:17.944Z,1.40
2019-06-08T07:41:26.255Z,1.00
2019-06-08T07:44:01.283Z,1.05
2019-06-08T07:46:40.954Z,1.07
2019-06-08T07:51:58.709Z,0.90
2019-06-08T07:54:25.137Z,1.07
2019-06-08T07:56:59.770Z,1.43
2019-06-08T07:59:34.701Z,2.00
2019-06-08T08:02:09.281Z,1.23
2019-06-08T08:04:43.918Z,1.07
2019-06-08T08:07:18.514Z,0.93
2019-06-08T08:09:54.803Z,0.90
2019-06-08T08:12:29.690Z,1.40
2019-06-08T08:15:04.337Z,1.50
2019-06-08T08:17:39.285Z,1.07
2019-06-08T08:20:13.948Z,1.30
2019-06-08T08:22:52.615Z,1.10
2019-06-08T08:25:25.278Z,1.13
2019-06-08T08:28:01.067Z,1.00
2019-06-08T08:30:37.669Z,1.37
2019-06-08T08:35:48.178Z,1.00
2019-06-08T08:38:23.465Z,0.93
2019-06-08T08:41:06.301Z,0.90
2019-06-08T08:43:34.342Z,1.40
2019-06-08T08:46:08.979Z,1.00
2019-06-08T08:48:43.694Z,1.00
2019-06-08T08:51:20.698Z,1.40
2019-06-08T08:53:59.970Z,3.37
2019-06-08T08:56:38.159Z,1.23
2019-06-08T08:59:12.063Z,1.20
2019-06-08T09:01:48.279Z,1.07
2019-06-08T09:04:23.078Z,0.83
2019-06-08T09:07:02.380Z,1.10
2019-06-08T09:09:34.283Z,1.17
2019-06-08T09:12:08.887Z,1.00
2019-06-08T09:14:43.327Z,1.10
2019-06-08T09:17:18.217Z,0.83
2019-06-08T09:19:54.019Z,1.15
2019-06-08T09:25:04.509Z,1.33
2019-06-08T09:27:39.277Z,1.00
2019-06-08T09:30:14.773Z,1.40
2019-06-08T09:32:49.340Z,1.20
2019-06-08T09:35:23.989Z,1.10
2019-06-08T09:38:01.089Z,1.10
2019-06-08T09:40:34.639Z,0.93
2019-06-08T09:45:44.276Z,1.40
2019-06-08T09:48:18.713Z,0.93
2019-06-08T09:50:53.203Z,1.00
2019-06-08T09:53:36.596Z,1.23
2019-06-08T09:56:06.522Z,0.97
2019-06-08T09:58:40.704Z,1.00
2019-06-08T10:01:15.506Z,0.87
2019-06-08T10:03:50.434Z,1.13
2019-06-08T10:06:24.947Z,1.07
2019-06-08T10:10:40.674Z,1.30
2019-06-08T10:15:51.335Z,1.30
2019-06-08T10:18:24.351Z,0.95
2019-06-08T10:21:01.373Z,1.00
2019-06-08T10:23:41.198Z,1.07
2019-06-08T10:26:13.458Z,1.20
2019-06-08T10:31:01.207Z,1.17
2019-06-08T10:33:37.714Z,1.30
2019-06-08T10:36:12.827Z,1.30
2019-06-08T10:38:48.073Z,1.53
2019-06-08T10:41:23.257Z,1.03
2019-06-08T10:43:59.127Z,1.10
2019-06-08T10:46:40.319Z,1.10
2019-06-08T10:49:14.146Z,1.20
2019-06-08T10:51:49.014Z,1.10
2019-06-08T10:54:23.967Z,1.10
2019-06-08T10:57:01.828Z,0.87
2019-06-08T10:59:43.537Z,1.13
2019-06-08T11:02:19.305Z,1.10
2019-06-08T11:04:53.897Z,1.03
2019-06-08T11:10:11.631Z,3.87
2019-06-08T11:12:44.361Z,1.30
2019-06-08T11:15:20.696Z,1.00
2019-06-08T11:17:59.930Z,1.17
2019-06-08T11:20:31.757Z,1.30
2019-06-08T11:23:09.821Z,1.30
2019-06-08T11:28:18.442Z,1.10
2019-06-08T11:30:53.734Z,1.00
2019-06-08T11:33:30.426Z,1.10
2019-06-08T11:36:09.995Z,2.13
2019-06-08T11:38:41.294Z,1.00
2019-06-08T11:41:18.311Z,1.20
2019-06-08T11:43:52.270Z,5.30
2019-06-08T11:46:28.217Z,1.13
2019-06-08T11:49:05.894Z,1.10
2019-06-08T11:51:47.684Z,1.13
2019-06-08T11:54:36.314Z,0.80
2019-06-08T11:56:58.340Z,1.30
2019-06-08T11:59:34.755Z,1.27
2019-06-08T12:02:13.541Z,1.10
2019-06-08T12:04:46.276Z,1.12
2019-06-08T12:07:20.886Z,1.03
2019-06-08T12:09:55.292Z,0.90
2019-06-08T12:12:29.742Z,1.27
2019-06-08T12:15:04.843Z,1.40
2019-06-08T12:17:39.335Z,1.10
2019-06-08T12:20:17.562Z,1.00
2019-06-08T12:22:50.355Z,1.23
2019-06-08T12:25:24.985Z,0.90
2019-06-08T12:27:59.786Z,0.90
2019-06-08T12:33:09.372Z,1.07
2019-06-08T12:35:43.898Z,1.37
2019-06-08T12:38:19.259Z,1.07
2019-06-08T12:43:51.402Z,1.30
2019-06-08T12:46:28.401Z,1.57
2019-06-08T12:49:02.983Z,1.40
2019-06-08T12:51:42.669Z,1.17
2019-06-08T12:54:19.386Z,1.45
2019-06-08T12:56:53.300Z,1.00
2019-06-08T12:59:28.431Z,1.20
2019-06-08T13:02:02.937Z,1.30
2019-06-08T13:04:38.383Z,0.93
2019-06-08T13:07:13.208Z,1.33
2019-06-08T13:09:48.353Z,1.17
2019-06-08T13:12:22.899Z,1.10
2019-06-08T13:14:58.255Z,1.10
2019-06-08T13:17:32.926Z,1.20
2019-06-08T13:20:12.793Z,1.30
2019-06-08T13:25:36.461Z,1.10
2019-06-08T13:27:58.717Z,1.33
2019-06-08T13:33:08.167Z,1.20
2019-06-08T13:35:42.927Z,0.90
2019-06-08T13:38:19.653Z,1.20
2019-06-08T13:40:53.356Z,1.40
2019-06-08T13:43:27.945Z,1.20
2019-06-08T13:46:02.274Z,1.30
2019-06-08T13:48:37.635Z,1.57
2019-06-08T13:53:47.851Z,1.50
2019-06-08T13:56:24.027Z,0.90
2019-06-08T13:58:58.735Z,1.63
2019-06-08T14:06:48.583Z,1.10
2019-06-08T14:09:23.290Z,1.22
2019-06-08T14:11:58.157Z,1.30
2019-06-08T14:14:33.779Z,1.67
2019-06-08T14:17:08.680Z,1.50
2019-06-08T14:22:20.097Z,1.32
2019-06-08T14:24:52.358Z,1.23
2019-06-08T14:27:28.560Z,1.40
2019-06-08T14:30:03.122Z,1.50
2019-06-08T14:32:38.221Z,1.40
2019-06-08T14:35:12.876Z,1.40
2019-06-08T14:37:48.197Z,1.32
2019-06-08T14:40:23.458Z,1.53
2019-06-08T14:42:58.172Z,1.30
2019-06-08T14:45:32.731Z,1.37
2019-06-08T14:50:40.837Z,1.30
2019-06-08T14:53:18.446Z,1.40
2019-06-08T14:56:04.937Z,1.57
2019-06-08T14:58:33.572Z,1.20
2019-06-08T15:01:05.112Z,1.00
2019-06-08T15:03:39.688Z,1.30
2019-06-08T15:11:21.716Z,1.00
2019-06-08T15:13:58.167Z,1.20
2019-06-08T15:16:33.435Z,1.35
2019-06-08T15:19:08.243Z,1.27
2019-06-08T15:21:44.963Z,1.20
2019-06-08T15:24:20.642Z,1.37
2019-06-08T15:29:30.719Z,1.40
2019-06-08T15:32:04.720Z,1.20
2019-06-08T15:34:39.125Z,1.00
2019-06-08T15:37:13.753Z,1.50
2019-06-08T15:42:24.259Z,1.47
2019-06-08T15:44:59.623Z,1.30
2019-06-08T15:50:09.282Z,1.63
2019-06-08T15:52:44.679Z,1.30
2019-06-08T15:55:20.007Z,1.35
2019-06-08T15:57:55.689Z,1.20
2019-06-08T16:00:33.230Z,1.37
2019-06-08T16:03:08.952Z,1.50
2019-06-08T16:05:43.286Z,1.30
2019-06-08T16:08:17.793Z,1.10
2019-06-08T16:13:24.976Z,1.50
2019-06-08T16:18:46.996Z,1.20
2019-06-08T16:21:21.364Z,1.70
2019-06-08T16:23:56.302Z,1.70
2019-06-08T16:26:31.734Z,1.40
2019-06-08T16:29:07.962Z,1.60
2019-06-08T16:31:44.338Z,1.70
2019-06-08T16:34:18.807Z,1.35
2019-06-08T16:36:52.975Z,2.10
2019-06-08T16:39:28.619Z,1.57
2019-06-08T16:44:36.762Z,1.60
2019-06-08T16:47:11.276Z,1.92
2019-06-08T16:49:45.933Z,1.37
2019-06-08T16:52:20.623Z,1.57
2019-06-08T16:54:55.002Z,1.30
2019-06-08T16:57:30.948Z,1.67
2019-06-08T17:00:30.097Z,2.00
2019-06-08T17:02:41.956Z,1.70
2019-06-08T17:05:16.287Z,1.50
2019-06-08T17:07:51.780Z,1.47
2019-06-08T17:12:58.962Z,1.40
2019-06-08T17:15:34.081Z,1.83
2019-06-08T17:18:08.743Z,1.30
2019-06-08T17:20:43.349Z,1.40
2019-06-08T17:23:17.898Z,1.90
2019-06-08T17:25:52.282Z,1.40
2019-06-08T17:28:26.750Z,1.77
2019-06-08T17:31:01.278Z,1.90
2019-06-08T17:33:35.905Z,1.90
2019-06-08T17:36:10.376Z,2.00
2019-06-08T17:38:45.123Z,1.60
2019-06-08T17:41:19.722Z,1.80
2019-06-08T17:43:54.279Z,1.77
2019-06-08T17:46:29.296Z,1.97
2019-06-08T17:50:35.116Z,1.90
2019-06-08T17:53:09.723Z,1.50
2019-06-08T17:55:44.294Z,1.67
2019-06-08T17:58:21.196Z,1.40
2019-06-08T18:00:55.096Z,1.90
2019-06-08T18:03:29.690Z,2.07
2019-06-08T18:06:07.159Z,3.43
2019-06-08T18:11:17.329Z,2.10
2019-06-08T18:13:51.957Z,2.17
2019-06-08T18:16:27.870Z,1.73
2019-06-08T18:19:03.562Z,1.70
2019-06-08T18:21:42.914Z,1.37
2019-06-08T18:24:17.590Z,1.70
2019-06-08T18:26:52.704Z,2.13
2019-06-08T18:29:27.655Z,2.00
2019-06-08T18:32:03.585Z,1.80
2019-06-08T18:34:39.965Z,2.10
2019-06-08T18:39:50.700Z,2.10
2019-06-08T18:44:58.372Z,2.70
2019-06-08T18:47:33.306Z,2.60
2019-06-08T18:50:09.071Z,2.57
2019-06-08T18:52:46.522Z,3.97
2019-06-08T18:55:22.339Z,3.33
2019-06-08T18:57:59.001Z,19.10
2019-06-08T19:00:42.038Z,3.43
2019-06-08T19:03:17.148Z,3.60
2019-06-08T19:05:52.408Z,5.13
2019-06-08T19:08:28.897Z,4.03
2019-06-08T19:11:03.689Z,3.00
2019-06-08T19:16:12.353Z,2.80
2019-06-08T19:18:52.570Z,3.02
2019-06-08T19:21:27.790Z,2.50
2019-06-08T19:24:02.958Z,2.10
2019-06-08T19:26:39.737Z,2.63
2019-06-08T19:29:14.291Z,2.25
2019-06-08T19:31:51.396Z,2.57
2019-06-08T19:34:29.029Z,3.57
2019-06-08T19:37:02.668Z,2.17
2019-06-08T19:39:39.598Z,2.92
2019-06-08T19:42:13.290Z,2.40
2019-06-08T19:44:59.634Z,5.10
2019-06-08T19:47:23.940Z,4.00
2019-06-08T19:49:58.380Z,4.53
2019-06-08T19:52:33.888Z,3.20
2019-06-08T19:55:08.320Z,3.30
2019-06-08T19:57:43.373Z,3.23
2019-06-08T20:00:18.210Z,3.27
2019-06-08T20:02:55.086Z,3.30
2019-06-08T20:05:29.273Z,3.52
2019-06-08T20:08:03.898Z,3.13
2019-06-08T20:10:39.065Z,3.20
2019-06-08T20:15:56.497Z,3.92
2019-06-08T20:18:27.930Z,4.20
2019-06-08T20:21:02.662Z,3.70
2019-06-08T20:23:38.289Z,3.63
2019-06-08T20:26:13.509Z,4.00
2019-06-08T20:28:51.015Z,4.00
2019-06-08T20:31:23.959Z,3.65
2019-06-08T20:33:58.679Z,3.75
2019-06-08T20:36:33.966Z,3.42
2019-06-08T20:39:10.406Z,4.00
2019-06-08T20:41:48.930Z,3.30
2019-06-08T20:44:22.008Z,3.33
2019-06-08T20:46:57.735Z,3.23
2019-06-08T20:49:32.144Z,3.30
2019-06-08T20:52:08.616Z,4.60
2019-06-08T20:54:42.961Z,5.03
2019-06-08T20:57:17.709Z,4.93
2019-06-08T20:59:53.580Z,5.07
2019-06-08T21:05:02.902Z,6.93
2019-06-08T21:07:37.340Z,5.35
2019-06-08T21:10:13.289Z,4.67
2019-06-08T21:12:49.906Z,4.43
2019-06-08T21:15:23.960Z,3.00
2019-06-08T21:17:58.284Z,2.97
2019-06-08T21:20:32.727Z,3.30
2019-06-08T21:23:08.159Z,3.70
2019-06-08T21:25:42.898Z,3.10
2019-06-08T21:28:17.285Z,3.10
2019-06-08T21:30:55.975Z,3.60
2019-06-08T21:33:27.950Z,3.20
2019-06-08T21:38:37.761Z,3.70
2019-06-08T21:41:12.286Z,3.60
2019-06-08T21:43:51.662Z,3.70
2019-06-08T21:46:24.413Z,3.67
2019-06-08T21:49:00.586Z,3.43
2019-06-08T21:54:09.674Z,3.10
2019-06-08T21:56:47.599Z,3.67
2019-06-08T21:59:24.651Z,4.23
2019-06-08T22:02:03.495Z,3.77
2019-06-08T22:04:37.213Z,4.30
2019-06-08T22:07:11.946Z,5.40
2019-06-08T22:09:48.025Z,5.40
2019-06-08T22:12:22.683Z,4.97
2019-06-08T22:17:31.953Z,4.67
2019-06-08T22:20:08.067Z,4.83
2019-06-08T22:22:42.922Z,4.25
2019-06-08T22:25:17.705Z,3.92
2019-06-08T22:30:36.321Z,4.25
2019-06-08T22:33:02.359Z,3.95
2019-06-08T22:35:37.358Z,3.50
2019-06-08T22:38:13.278Z,3.63
2019-06-08T22:40:48.286Z,3.37
2019-06-08T22:43:23.283Z,3.73
2019-06-08T22:46:00.239Z,3.43
2019-06-08T22:48:33.888Z,3.22
2019-06-08T22:51:09.277Z,3.63
2019-06-08T22:53:43.947Z,3.50
2019-06-08T22:56:18.448Z,4.67
2019-06-08T22:58:54.367Z,3.70
2019-06-08T23:01:29.669Z,3.90
2019-06-08T23:04:06.265Z,3.03
2019-06-08T23:06:41.776Z,3.17
2019-06-08T23:09:17.996Z,3.02
2019-06-08T23:11:55.552Z,3.27
2019-06-08T23:14:30.319Z,2.60
2019-06-08T23:17:05.567Z,2.30
2019-06-08T23:19:40.266Z,2.33
2019-06-08T23:22:14.788Z,3.10
2019-06-08T23:27:22.347Z,2.10
2019-06-08T23:29:59.094Z,2.70
2019-06-08T23:32:33.201Z,2.60
2019-06-08T23:35:09.367Z,2.57
2019-06-08T23:37:44.110Z,2.47
2019-06-08T23:40:18.675Z,2.12
2019-06-08T23:42:52.939Z,2.37
2019-06-08T23:48:02.846Z,1.97
2019-06-08T23:50:37.909Z,1.70
2019-06-08T23:53:12.655Z,2.10
2019-06-08T23:55:47.964Z,2.07
2019-06-08T23:58:22.662Z,2.03
